sensor_id;sensor_type;location;lat;lon;timestamp;pressure;altitude;pressure_sealevel;temperature;humidity
23170;BME280;11753;43.144;24.714;2022-12-22T00:00:20;100005.19;;;-2.15;100.00
23170;BME280;11753;43.144;24.714;2022-12-22T00:01:40;100011.25;;;-2.16;100.00
23170;BME280;11753;43.144;24.714;2022-12-22T00:03:00;100008.72;;;-2.18;100.00
23170;BME280;11753;43.144;24.714;2022-12-22T00:04:19;100009.50;;;-2.16;100.00
23170;BME280;11753;43.144;24.714;2022-12-22T00:05:39;100020.03;;;-2.20;100.00
23170;BME280;11753;43.144;24.714;2022-12-22T00:06:59;100018.78;;;-2.32;100.00
23170;BME280;11753;43.144;24.714;2022-12-22T00:08:18;100012.84;;;-2.34;100.00
23170;BME280;11753;43.144;24.714;2022-12-22T00:09:37;100014.53;;;-2.33;100.00
23170;BME280;11753;43.144;24.714;2022-12-22T00:10:57;100005.03;;;-2.33;100.00
23170;BME280;11753;43.144;24.714;2022-12-22T00:12:19;100010.19;;;-2.33;100.00
23170;BME280;11753;43.144;24.714;2022-12-22T00:13:42;100010.91;;;-2.29;100.00
23170;BME280;11753;43.144;24.714;2022-12-22T00:15:04;100005.16;;;-2.36;100.00
23170;BME280;11753;43.144;24.714;2022-12-22T00:16:30;100001.63;;;-2.33;99.78
23170;BME280;11753;43.144;24.714;2022-12-22T00:17:50;99999.13;;;-2.35;99.53
23170;BME280;11753;43.144;24.714;2022-12-22T00:19:13;100003.69;;;-2.41;99.42
23170;BME280;11753;43.144;24.714;2022-12-22T00:20:32;100000.38;;;-2.45;99.53
23170;BME280;11753;43.144;24.714;2022-12-22T00:21:51;99997.03;;;-2.47;99.26
23170;BME280;11753;43.144;24.714;2022-12-22T00:23:11;99998.63;;;-2.44;99.31
23170;BME280;11753;43.144;24.714;2022-12-22T00:24:30;99999.47;;;-2.44;99.17
23170;BME280;11753;43.144;24.714;2022-12-22T00:25:50;99996.19;;;-2.47;99.02
23170;BME280;11753;43.144;24.714;2022-12-22T00:27:14;99990.19;;;-2.48;99.03
23170;BME280;11753;43.144;24.714;2022-12-22T00:28:34;99986.81;;;-2.50;98.74
23170;BME280;11753;43.144;24.714;2022-12-22T00:29:54;99985.16;;;-2.51;98.70
23170;BME280;11753;43.144;24.714;2022-12-22T00:31:13;99988.78;;;-2.55;98.54
23170;BME280;11753;43.144;24.714;2022-12-22T00:32:36;99982.72;;;-2.54;98.18
23170;BME280;11753;43.144;24.714;2022-12-22T00:33:56;99980.38;;;-2.60;98.44
23170;BME280;11753;43.144;24.714;2022-12-22T00:35:16;99984.75;;;-2.62;98.68
23170;BME280;11753;43.144;24.714;2022-12-22T00:36:36;99978.03;;;-2.66;98.58
23170;BME280;11753;43.144;24.714;2022-12-22T00:37:55;99978.84;;;-2.64;98.62
23170;BME280;11753;43.144;24.714;2022-12-22T00:39:14;99977.13;;;-2.65;98.73
23170;BME280;11753;43.144;24.714;2022-12-22T00:40:34;99979.78;;;-2.67;98.44
23170;BME280;11753;43.144;24.714;2022-12-22T00:41:53;99971.34;;;-2.70;98.39
23170;BME280;11753;43.144;24.714;2022-12-22T00:43:17;99974.75;;;-2.70;98.43
23170;BME280;11753;43.144;24.714;2022-12-22T00:46:44;99966.59;;;-2.81;98.23
23170;BME280;11753;43.144;24.714;2022-12-22T00:48:05;99969.25;;;-2.83;98.32
23170;BME280;11753;43.144;24.714;2022-12-22T00:49:29;99962.28;;;-2.81;98.23
23170;BME280;11753;43.144;24.714;2022-12-22T00:50:50;99975.00;;;-2.98;98.82
23170;BME280;11753;43.144;24.714;2022-12-22T00:52:09;99965.59;;;-2.99;98.81
23170;BME280;11753;43.144;24.714;2022-12-22T00:53:29;99962.19;;;-2.99;98.89
23170;BME280;11753;43.144;24.714;2022-12-22T00:54:52;99961.34;;;-3.00;98.91
23170;BME280;11753;43.144;24.714;2022-12-22T00:56:11;99971.38;;;-2.94;98.82
23170;BME280;11753;43.144;24.714;2022-12-22T00:57:31;99957.72;;;-2.96;98.66
23170;BME280;11753;43.144;24.714;2022-12-22T00:58:52;99955.06;;;-2.93;98.35
23170;BME280;11753;43.144;24.714;2022-12-22T01:00:17;99953.47;;;-2.97;98.50
23170;BME280;11753;43.144;24.714;2022-12-22T01:01:37;99955.38;;;-3.02;98.46
23170;BME280;11753;43.144;24.714;2022-12-22T01:02:57;99960.59;;;-3.03;98.53
23170;BME280;11753;43.144;24.714;2022-12-22T01:04:16;99942.41;;;-2.99;98.47
23170;BME280;11753;43.144;24.714;2022-12-22T01:05:36;99942.50;;;-3.02;98.57
23170;BME280;11753;43.144;24.714;2022-12-22T01:06:56;99946.88;;;-3.04;98.16
23170;BME280;11753;43.144;24.714;2022-12-22T01:08:16;99936.59;;;-3.04;98.37
23170;BME280;11753;43.144;24.714;2022-12-22T01:09:35;99952.22;;;-3.09;98.11
23170;BME280;11753;43.144;24.714;2022-12-22T01:10:54;99950.44;;;-3.07;98.15
23170;BME280;11753;43.144;24.714;2022-12-22T01:12:23;99940.84;;;-3.03;97.88
23170;BME280;11753;43.144;24.714;2022-12-22T01:13:42;99934.00;;;-3.04;97.74
23170;BME280;11753;43.144;24.714;2022-12-22T01:15:02;99934.69;;;-2.99;97.67
23170;BME280;11753;43.144;24.714;2022-12-22T01:16:21;99935.91;;;-3.09;97.62
23170;BME280;11753;43.144;24.714;2022-12-22T01:17:41;99943.84;;;-3.14;98.01
23170;BME280;11753;43.144;24.714;2022-12-22T01:19:00;99927.28;;;-3.08;98.10
23170;BME280;11753;43.144;24.714;2022-12-22T01:20:19;99939.31;;;-3.07;97.87
23170;BME280;11753;43.144;24.714;2022-12-22T01:21:39;99933.19;;;-3.05;97.68
23170;BME280;11753;43.144;24.714;2022-12-22T01:22:59;99934.00;;;-3.04;97.71
23170;BME280;11753;43.144;24.714;2022-12-22T01:24:18;99940.00;;;-3.03;97.41
23170;BME280;11753;43.144;24.714;2022-12-22T01:25:38;99939.31;;;-3.07;97.47
23170;BME280;11753;43.144;24.714;2022-12-22T01:26:57;99929.00;;;-3.07;97.27
23170;BME280;11753;43.144;24.714;2022-12-22T01:28:17;99936.75;;;-3.09;97.31
23170;BME280;11753;43.144;24.714;2022-12-22T01:29:36;99928.31;;;-3.12;97.31
23170;BME280;11753;43.144;24.714;2022-12-22T01:30:55;99941.31;;;-3.15;97.35
23170;BME280;11753;43.144;24.714;2022-12-22T01:32:15;99935.28;;;-3.14;97.24
23170;BME280;11753;43.144;24.714;2022-12-22T01:33:35;99937.78;;;-3.13;97.23
23170;BME280;11753;43.144;24.714;2022-12-22T01:34:54;99934.63;;;-3.19;97.07
23170;BME280;11753;43.144;24.714;2022-12-22T01:36:14;99934.63;;;-3.19;97.11
23170;BME280;11753;43.144;24.714;2022-12-22T01:37:34;99936.13;;;-3.14;97.05
23170;BME280;11753;43.144;24.714;2022-12-22T01:38:53;99937.00;;;-3.15;96.86
23170;BME280;11753;43.144;24.714;2022-12-22T01:40:19;99932.94;;;-3.20;96.96
23170;BME280;11753;43.144;24.714;2022-12-22T01:41:38;99927.81;;;-3.22;96.95
23170;BME280;11753;43.144;24.714;2022-12-22T01:42:58;99925.22;;;-3.20;96.93
23170;BME280;11753;43.144;24.714;2022-12-22T01:44:17;99922.44;;;-3.16;96.84
23170;BME280;11753;43.144;24.714;2022-12-22T01:45:36;99924.97;;;-3.14;96.60
23170;BME280;11753;43.144;24.714;2022-12-22T01:48:47;99914.53;;;-3.11;96.54
23170;BME280;11753;43.144;24.714;2022-12-22T01:50:06;99922.41;;;-3.14;96.33
23170;BME280;11753;43.144;24.714;2022-12-22T01:51:27;99926.13;;;-3.21;96.22
23170;BME280;11753;43.144;24.714;2022-12-22T01:52:46;99925.84;;;-3.15;96.35
23170;BME280;11753;43.144;24.714;2022-12-22T01:54:07;99924.97;;;-3.14;96.23
23170;BME280;11753;43.144;24.714;2022-12-22T01:55:27;99917.25;;;-3.14;96.06
23170;BME280;11753;43.144;24.714;2022-12-22T01:56:47;99915.44;;;-3.12;96.08
23170;BME280;11753;43.144;24.714;2022-12-22T01:58:15;99911.97;;;-3.11;96.09
23170;BME280;11753;43.144;24.714;2022-12-22T01:59:38;99903.25;;;-3.07;96.03
23170;BME280;11753;43.144;24.714;2022-12-22T02:00:57;99908.38;;;-3.07;95.75
23170;BME280;11753;43.144;24.714;2022-12-22T02:02:17;99901.53;;;-3.08;95.87
23170;BME280;11753;43.144;24.714;2022-12-22T02:03:39;99899.78;;;-3.08;95.67
23170;BME280;11753;43.144;24.714;2022-12-22T02:05:00;99901.53;;;-3.08;95.60
23170;BME280;11753;43.144;24.714;2022-12-22T02:06:37;99898.09;;;-3.07;95.56
23170;BME280;11753;43.144;24.714;2022-12-22T02:11:02;99898.09;;;-3.07;95.01
23170;BME280;11753;43.144;24.714;2022-12-22T02:12:48;99892.13;;;-3.09;95.09
23170;BME280;11753;43.144;24.714;2022-12-22T02:17:30;99889.94;;;-3.18;95.05
23170;BME280;11753;43.144;24.714;2022-12-22T02:19:07;99897.78;;;-3.21;95.41
23170;BME280;11753;43.144;24.714;2022-12-22T02:22:27;99881.91;;;-3.11;94.93
23170;BME280;11753;43.144;24.714;2022-12-22T02:26:27;99893.28;;;-3.16;95.11
23170;BME280;11753;43.144;24.714;2022-12-22T02:27:50;99889.69;;;-3.12;95.11
23170;BME280;11753;43.144;24.714;2022-12-22T02:29:18;99884.00;;;-3.20;95.22
23170;BME280;11753;43.144;24.714;2022-12-22T02:30:40;99889.78;;;-3.15;95.41
23170;BME280;11753;43.144;24.714;2022-12-22T02:32:00;99879.38;;;-3.12;95.29
23170;BME280;11753;43.144;24.714;2022-12-22T02:33:20;99884.53;;;-3.12;95.21
23170;BME280;11753;43.144;24.714;2022-12-22T02:34:39;99885.44;;;-3.13;95.19
23170;BME280;11753;43.144;24.714;2022-12-22T02:36:03;99882.19;;;-3.18;95.05
23170;BME280;11753;43.144;24.714;2022-12-22T02:45:32;99871.38;;;-3.26;95.72
23170;BME280;11753;43.144;24.714;2022-12-22T02:47:05;99877.13;;;-3.20;95.53
23170;BME280;11753;43.144;24.714;2022-12-22T02:48:36;99871.97;;;-3.20;95.66
23170;BME280;11753;43.144;24.714;2022-12-22T02:50:10;99874.63;;;-3.21;95.61
23170;BME280;11753;43.144;24.714;2022-12-22T02:51:39;99874.66;;;-3.23;95.82
23170;BME280;11753;43.144;24.714;2022-12-22T02:53:00;99866.91;;;-3.23;96.08
23170;BME280;11753;43.144;24.714;2022-12-22T02:54:20;99875.44;;;-3.21;96.17
23170;BME280;11753;43.144;24.714;2022-12-22T02:55:41;99872.81;;;-3.19;96.14
23170;BME280;11753;43.144;24.714;2022-12-22T02:57:07;99869.31;;;-3.18;96.05
23170;BME280;11753;43.144;24.714;2022-12-22T02:58:27;99870.22;;;-3.19;96.00
23170;BME280;11753;43.144;24.714;2022-12-22T02:59:48;99867.88;;;-3.25;96.32
23170;BME280;11753;43.144;24.714;2022-12-22T03:01:08;99866.75;;;-3.18;96.25
23170;BME280;11753;43.144;24.714;2022-12-22T03:02:27;99871.72;;;-3.14;96.34
23170;BME280;11753;43.144;24.714;2022-12-22T03:03:47;99862.13;;;-3.10;95.83
23170;BME280;11753;43.144;24.714;2022-12-22T03:05:06;99864.31;;;-3.21;96.31
23170;BME280;11753;43.144;24.714;2022-12-22T03:06:26;99863.44;;;-3.22;96.46
23170;BME280;11753;43.144;24.714;2022-12-22T03:07:45;99871.00;;;-3.17;96.19
23170;BME280;11753;43.144;24.714;2022-12-22T03:09:05;99866.63;;;-3.15;96.42
23170;BME280;11753;43.144;24.714;2022-12-22T03:10:24;99875.19;;;-3.15;96.37
23170;BME280;11753;43.144;24.714;2022-12-22T03:11:44;99873.34;;;-3.11;96.39
23170;BME280;11753;43.144;24.714;2022-12-22T03:13:03;99871.53;;;-3.09;96.31
23170;BME280;11753;43.144;24.714;2022-12-22T03:14:22;99868.84;;;-3.06;96.20
23170;BME280;11753;43.144;24.714;2022-12-22T03:15:41;99870.53;;;-3.05;96.04
23170;BME280;11753;43.144;24.714;2022-12-22T03:17:00;99865.47;;;-3.08;96.11
23170;BME280;11753;43.144;24.714;2022-12-22T03:18:20;99874.25;;;-3.12;96.14
23170;BME280;11753;43.144;24.714;2022-12-22T03:19:39;99866.31;;;-3.08;96.39
23170;BME280;11753;43.144;24.714;2022-12-22T03:20:58;99863.44;;;-3.00;95.97
23170;BME280;11753;43.144;24.714;2022-12-22T03:22:18;99861.66;;;-2.98;95.91
23170;BME280;11753;43.144;24.714;2022-12-22T03:23:38;99864.88;;;-2.93;95.75
23170;BME280;11753;43.144;24.714;2022-12-22T03:24:58;99870.13;;;-2.96;95.83
23170;BME280;11753;43.144;24.714;2022-12-22T03:26:17;99873.47;;;-2.94;95.77
23170;BME280;11753;43.144;24.714;2022-12-22T03:27:18;99869.97;;;-2.91;95.57
23170;BME280;11753;43.144;24.714;2022-12-22T03:28:25;99876.97;;;-2.95;95.25
23170;BME280;11753;43.144;24.714;2022-12-22T03:29:26;99863.56;;;-3.03;95.46
23170;BME280;11753;43.144;24.714;2022-12-22T03:30:27;99871.94;;;-2.98;95.48
23170;BME280;11753;43.144;24.714;2022-12-22T03:31:28;99868.59;;;-3.00;95.62
23170;BME280;11753;43.144;24.714;2022-12-22T03:32:29;99874.00;;;-3.06;95.64
23170;BME280;11753;43.144;24.714;2022-12-22T03:33:31;99868.84;;;-3.06;95.79
23170;BME280;11753;43.144;24.714;2022-12-22T03:34:32;99878.69;;;-2.95;95.60
23170;BME280;11753;43.144;24.714;2022-12-22T03:35:33;99878.53;;;-2.91;95.27
23170;BME280;11753;43.144;24.714;2022-12-22T03:36:34;99869.13;;;-2.92;95.13
23170;BME280;11753;43.144;24.714;2022-12-22T03:37:35;99870.72;;;-2.89;95.03
23170;BME280;11753;43.144;24.714;2022-12-22T03:38:36;99871.31;;;-2.83;94.82
23170;BME280;11753;43.144;24.714;2022-12-22T03:39:37;99868.00;;;-2.86;94.58
23170;BME280;11753;43.144;24.714;2022-12-22T03:40:38;99866.16;;;-2.83;94.60
23170;BME280;11753;43.144;24.714;2022-12-22T03:41:39;99867.72;;;-2.79;94.23
23170;BME280;11753;43.144;24.714;2022-12-22T03:42:58;99871.97;;;-2.78;94.13
23170;BME280;11753;43.144;24.714;2022-12-22T03:44:17;99873.59;;;-2.75;93.97
23170;BME280;11753;43.144;24.714;2022-12-22T03:45:37;99881.56;;;-2.81;93.89
23170;BME280;11753;43.144;24.714;2022-12-22T03:46:56;99874.22;;;-2.90;94.11
23170;BME280;11753;43.144;24.714;2022-12-22T03:47:57;99865.59;;;-2.89;94.04
23170;BME280;11753;43.144;24.714;2022-12-22T03:49:00;99867.00;;;-2.82;94.31
23170;BME280;11753;43.144;24.714;2022-12-22T03:50:10;99868.75;;;-2.83;94.22
23170;BME280;11753;43.144;24.714;2022-12-22T03:51:11;99867.16;;;-2.85;94.44
23170;BME280;11753;43.144;24.714;2022-12-22T03:52:11;99865.41;;;-2.85;94.41
23170;BME280;11753;43.144;24.714;2022-12-22T03:53:12;99874.16;;;-2.89;94.43
23170;BME280;11753;43.144;24.714;2022-12-22T03:54:16;99866.41;;;-2.89;94.50
23170;BME280;11753;43.144;24.714;2022-12-22T03:55:17;99875.81;;;-2.88;94.62
23170;BME280;11753;43.144;24.714;2022-12-22T03:56:17;99874.97;;;-2.88;94.81
23170;BME280;11753;43.144;24.714;2022-12-22T03:57:18;99869.91;;;-2.90;94.64
23170;BME280;11753;43.144;24.714;2022-12-22T03:58:21;99871.56;;;-2.89;94.83
23170;BME280;11753;43.144;24.714;2022-12-22T03:59:21;99875.94;;;-2.91;94.96
23170;BME280;11753;43.144;24.714;2022-12-22T04:00:22;99870.03;;;-2.93;94.90
23170;BME280;11753;43.144;24.714;2022-12-22T04:01:23;99870.28;;;-2.99;94.88
23170;BME280;11753;43.144;24.714;2022-12-22T04:02:23;99875.28;;;-2.96;95.09
23170;BME280;11753;43.144;24.714;2022-12-22T04:03:26;99875.66;;;-3.05;95.27
23170;BME280;11753;43.144;24.714;2022-12-22T04:04:27;99876.69;;;-3.09;95.52
23170;BME280;11753;43.144;24.714;2022-12-22T04:05:28;99871.53;;;-3.09;95.80
23170;BME280;11753;43.144;24.714;2022-12-22T04:06:29;99874.00;;;-3.06;95.92
23170;BME280;11753;43.144;24.714;2022-12-22T04:07:30;99880.94;;;-3.08;95.92
23170;BME280;11753;43.144;24.714;2022-12-22T04:08:30;99881.59;;;-3.03;96.01
23170;BME280;11753;43.144;24.714;2022-12-22T04:09:32;99874.69;;;-3.02;96.05
23170;BME280;11753;43.144;24.714;2022-12-22T04:10:33;99875.66;;;-3.05;96.14
23170;BME280;11753;43.144;24.714;2022-12-22T04:11:52;99875.84;;;-3.10;96.18
23170;BME280;11753;43.144;24.714;2022-12-22T04:13:12;99873.56;;;-3.17;96.50
23170;BME280;11753;43.144;24.714;2022-12-22T04:14:13;99872.91;;;-3.22;96.71
23170;BME280;11753;43.144;24.714;2022-12-22T04:15:14;99878.25;;;-3.27;96.83
23170;BME280;11753;43.144;24.714;2022-12-22T04:16:15;99878.34;;;-3.30;97.02
23170;BME280;11753;43.144;24.714;2022-12-22T04:17:16;99872.97;;;-3.46;97.23
23170;BME280;11753;43.144;24.714;2022-12-22T04:18:17;99874.41;;;-3.61;97.88
23170;BME280;11753;43.144;24.714;2022-12-22T04:19:21;99873.69;;;-3.64;98.35
23170;BME280;11753;43.144;24.714;2022-12-22T04:20:25;99873.13;;;-3.72;98.72
23170;BME280;11753;43.144;24.714;2022-12-22T04:21:26;99875.13;;;-3.80;99.16
23170;BME280;11753;43.144;24.714;2022-12-22T04:22:27;99871.34;;;-3.70;98.97
23170;BME280;11753;43.144;24.714;2022-12-22T04:23:28;99874.06;;;-3.75;99.13
23170;BME280;11753;43.144;24.714;2022-12-22T04:24:29;99870.94;;;-3.83;99.39
23170;BME280;11753;43.144;24.714;2022-12-22T04:25:30;99878.59;;;-3.81;99.89
23170;BME280;11753;43.144;24.714;2022-12-22T04:26:31;99870.19;;;-3.85;99.94
23170;BME280;11753;43.144;24.714;2022-12-22T04:27:32;99876.31;;;-3.89;100.00
23170;BME280;11753;43.144;24.714;2022-12-22T04:28:33;99870.22;;;-4.10;100.00
23170;BME280;11753;43.144;24.714;2022-12-22T04:29:34;99871.13;;;-4.11;100.00
23170;BME280;11753;43.144;24.714;2022-12-22T04:30:35;99874.38;;;-4.06;100.00
23170;BME280;11753;43.144;24.714;2022-12-22T04:31:36;99872.94;;;-4.15;100.00
23170;BME280;11753;43.144;24.714;2022-12-22T04:32:37;99869.88;;;-4.24;100.00
23170;BME280;11753;43.144;24.714;2022-12-22T04:33:38;99868.81;;;-4.19;100.00
23170;BME280;11753;43.144;24.714;2022-12-22T04:34:39;99873.22;;;-4.22;100.00
23170;BME280;11753;43.144;24.714;2022-12-22T04:35:40;99866.53;;;-4.26;100.00
23170;BME280;11753;43.144;24.714;2022-12-22T04:36:41;99875.00;;;-4.24;100.00
23170;BME280;11753;43.144;24.714;2022-12-22T04:37:42;99870.00;;;-4.27;100.00
23170;BME280;11753;43.144;24.714;2022-12-22T04:38:43;99861.38;;;-4.26;100.00
23170;BME280;11753;43.144;24.714;2022-12-22T04:39:44;99868.19;;;-4.25;100.00
23170;BME280;11753;43.144;24.714;2022-12-22T04:40:48;99870.66;;;-4.22;100.00
23170;BME280;11753;43.144;24.714;2022-12-22T04:41:49;99867.63;;;-4.33;100.00
23170;BME280;11753;43.144;24.714;2022-12-22T04:42:49;99873.50;;;-4.30;100.00
23170;BME280;11753;43.144;24.714;2022-12-22T04:43:50;99870.03;;;-4.29;100.00
23170;BME280;11753;43.144;24.714;2022-12-22T04:44:51;99869.09;;;-4.26;100.00
23170;BME280;11753;43.144;24.714;2022-12-22T04:45:53;99875.78;;;-4.22;100.00
23170;BME280;11753;43.144;24.714;2022-12-22T04:46:54;99872.50;;;-4.26;100.00
23170;BME280;11753;43.144;24.714;2022-12-22T04:47:55;99873.81;;;-4.39;100.00
23170;BME280;11753;43.144;24.714;2022-12-22T04:48:56;99870.41;;;-4.39;100.00
23170;BME280;11753;43.144;24.714;2022-12-22T04:49:57;99871.94;;;-4.34;100.00
23170;BME280;11753;43.144;24.714;2022-12-22T04:50:59;99865.63;;;-4.25;100.00
23170;BME280;11753;43.144;24.714;2022-12-22T04:52:01;99866.66;;;-4.31;100.00
23170;BME280;11753;43.144;24.714;2022-12-22T04:53:02;99864.84;;;-4.27;100.00
23170;BME280;11753;43.144;24.714;2022-12-22T04:54:03;99863.25;;;-4.31;100.00
23170;BME280;11753;43.144;24.714;2022-12-22T04:55:04;99868.41;;;-4.31;100.00
23170;BME280;11753;43.144;24.714;2022-12-22T04:56:07;99872.72;;;-4.32;100.00
23170;BME280;11753;43.144;24.714;2022-12-22T04:57:08;99870.00;;;-4.27;100.00
23170;BME280;11753;43.144;24.714;2022-12-22T04:58:09;99867.44;;;-4.29;100.00
23170;BME280;11753;43.144;24.714;2022-12-22T04:59:10;99866.59;;;-4.28;100.00
23170;BME280;11753;43.144;24.714;2022-12-22T05:00:11;99860.69;;;-4.31;100.00
23170;BME280;11753;43.144;24.714;2022-12-22T05:01:16;99865.06;;;-4.33;100.00
23170;BME280;11753;43.144;24.714;2022-12-22T05:02:17;99864.84;;;-4.27;100.00
23170;BME280;11753;43.144;24.714;2022-12-22T05:03:18;99855.41;;;-4.27;100.00
23170;BME280;11753;43.144;24.714;2022-12-22T05:04:18;99858.97;;;-4.31;100.00
23170;BME280;11753;43.144;24.714;2022-12-22T05:05:19;99848.75;;;-4.32;100.00
23170;BME280;11753;43.144;24.714;2022-12-22T05:06:20;99857.69;;;-4.19;100.00
23170;BME280;11753;43.144;24.714;2022-12-22T05:07:21;99849.78;;;-4.15;100.00
23170;BME280;11753;43.144;24.714;2022-12-22T05:08:21;99847.28;;;-4.16;100.00
23170;BME280;11753;43.144;24.714;2022-12-22T05:09:22;99845.53;;;-4.14;100.00
23170;BME280;11753;43.144;24.714;2022-12-22T05:10:22;99850.53;;;-4.11;100.00
23170;BME280;11753;43.144;24.714;2022-12-22T05:11:23;99851.03;;;-4.01;100.00
23170;BME280;11753;43.144;24.714;2022-12-22T05:12:25;99858.94;;;-4.06;100.00
23170;BME280;11753;43.144;24.714;2022-12-22T05:13:44;99853.56;;;-4.00;100.00
23170;BME280;11753;43.144;24.714;2022-12-22T05:14:45;99845.84;;;-4.00;100.00
23170;BME280;11753;43.144;24.714;2022-12-22T05:15:46;99848.09;;;-3.91;100.00
23170;BME280;11753;43.144;24.714;2022-12-22T05:16:47;99848.09;;;-3.91;100.00
23170;BME280;11753;43.144;24.714;2022-12-22T05:17:48;99845.38;;;-3.88;100.00
23170;BME280;11753;43.144;24.714;2022-12-22T05:18:49;99845.09;;;-3.80;100.00
23170;BME280;11753;43.144;24.714;2022-12-22T05:19:50;99854.56;;;-3.80;100.00
23170;BME280;11753;43.144;24.714;2022-12-22T05:20:51;99845.94;;;-3.79;100.00
23170;BME280;11753;43.144;24.714;2022-12-22T05:21:52;99847.63;;;-3.78;100.00
23170;BME280;11753;43.144;24.714;2022-12-22T05:22:53;99844.16;;;-3.77;100.00
23170;BME280;11753;43.144;24.714;2022-12-22T05:23:56;99841.13;;;-3.89;100.00
23170;BME280;11753;43.144;24.714;2022-12-22T05:24:56;99848.19;;;-3.94;100.00
23170;BME280;11753;43.144;24.714;2022-12-22T05:25:58;99845.56;;;-3.92;100.00
23170;BME280;11753;43.144;24.714;2022-12-22T05:26:58;99851.66;;;-3.95;100.00
23170;BME280;11753;43.144;24.714;2022-12-22T05:27:59;99849.81;;;-3.91;100.00
23170;BME280;11753;43.144;24.714;2022-12-22T05:29:00;99854.50;;;-4.02;100.00
23170;BME280;11753;43.144;24.714;2022-12-22T05:30:01;99849.28;;;-3.99;100.00
23170;BME280;11753;43.144;24.714;2022-12-22T05:31:03;99845.56;;;-3.92;100.00
23170;BME280;11753;43.144;24.714;2022-12-22T05:32:05;99843.78;;;-3.90;100.00
23170;BME280;11753;43.144;24.714;2022-12-22T05:33:05;99850.22;;;-3.78;100.00
23170;BME280;11753;43.144;24.714;2022-12-22T05:34:06;99847.63;;;-3.78;100.00
23170;BME280;11753;43.144;24.714;2022-12-22T05:35:07;99842.22;;;-3.72;100.00
23170;BME280;11753;43.144;24.714;2022-12-22T05:36:08;99838.66;;;-3.68;100.00
23170;BME280;11753;43.144;24.714;2022-12-22T05:37:09;99852.91;;;-3.60;100.00
23170;BME280;11753;43.144;24.714;2022-12-22T05:38:09;99843.44;;;-3.59;99.95
23170;BME280;11753;43.144;24.714;2022-12-22T05:39:10;99834.13;;;-3.62;99.83
23170;BME280;11753;43.144;24.714;2022-12-22T05:40:11;99849.19;;;-3.52;99.87
23170;BME280;11753;43.144;24.714;2022-12-22T05:41:12;99843.69;;;-3.43;99.86
23170;BME280;11753;43.144;24.714;2022-12-22T05:42:13;99844.28;;;-3.37;99.53
23170;BME280;11753;43.144;24.714;2022-12-22T05:43:13;99838.44;;;-3.40;99.30
23170;BME280;11753;43.144;24.714;2022-12-22T05:44:16;99850.84;;;-3.28;99.25
23170;BME280;11753;43.144;24.714;2022-12-22T05:45:19;99846.31;;;-3.23;98.67
23170;BME280;11753;43.144;24.714;2022-12-22T05:46:20;99843.56;;;-3.18;98.71
23170;BME280;11753;43.144;24.714;2022-12-22T05:47:22;99846.66;;;-3.10;98.21
23170;BME280;11753;43.144;24.714;2022-12-22T05:48:23;99845.13;;;-3.14;98.12
23170;BME280;11753;43.144;24.714;2022-12-22T05:49:23;99842.34;;;-3.10;98.09
23170;BME280;11753;43.144;24.714;2022-12-22T05:50:24;99840.63;;;-3.09;98.05
23170;BME280;11753;43.144;24.714;2022-12-22T05:51:25;99837.13;;;-3.08;97.95
23170;BME280;11753;43.144;24.714;2022-12-22T05:52:26;99844.75;;;-3.05;97.94
23170;BME280;11753;43.144;24.714;2022-12-22T05:53:27;99846.25;;;-2.99;97.30
23170;BME280;11753;43.144;24.714;2022-12-22T05:54:28;99832.25;;;-2.94;97.38
23170;BME280;11753;43.144;24.714;2022-12-22T05:55:28;99844.13;;;-2.90;97.09
23170;BME280;11753;43.144;24.714;2022-12-22T05:56:29;99845.03;;;-2.91;96.55
23170;BME280;11753;43.144;24.714;2022-12-22T05:57:29;99847.22;;;-2.82;96.50
23170;BME280;11753;43.144;24.714;2022-12-22T05:58:30;99841.38;;;-2.85;96.17
23170;BME280;11753;43.144;24.714;2022-12-22T05:59:34;99848.66;;;-2.74;96.00
23170;BME280;11753;43.144;24.714;2022-12-22T06:00:34;99848.78;;;-2.78;95.33
23170;BME280;11753;43.144;24.714;2022-12-22T06:01:35;99848.47;;;-2.70;94.69
23170;BME280;11753;43.144;24.714;2022-12-22T06:02:36;99848.25;;;-2.65;94.31
23170;BME280;11753;43.144;24.714;2022-12-22T06:03:36;99847.16;;;-2.60;94.26
23170;BME280;11753;43.144;24.714;2022-12-22T06:04:37;99851.34;;;-2.57;94.26
23170;BME280;11753;43.144;24.714;2022-12-22T06:05:37;99852.91;;;-2.53;94.09
23170;BME280;11753;43.144;24.714;2022-12-22T06:06:38;99853.63;;;-2.50;93.92
23170;BME280;11753;43.144;24.714;2022-12-22T06:07:38;99850.00;;;-2.45;93.95
23170;BME280;11753;43.144;24.714;2022-12-22T06:08:39;99849.00;;;-2.43;93.83
23170;BME280;11753;43.144;24.714;2022-12-22T06:09:39;99854.88;;;-2.39;93.42
23170;BME280;11753;43.144;24.714;2022-12-22T06:10:40;99857.28;;;-2.35;93.38
23170;BME280;11753;43.144;24.714;2022-12-22T06:11:41;99856.38;;;-2.34;93.19
23170;BME280;11753;43.144;24.714;2022-12-22T06:12:42;99849.91;;;-2.24;92.89
23170;BME280;11753;43.144;24.714;2022-12-22T06:13:44;99856.81;;;-2.24;92.97
23170;BME280;11753;43.144;24.714;2022-12-22T06:14:44;99851.56;;;-2.23;93.01
23170;BME280;11753;43.144;24.714;2022-12-22T06:15:47;99856.47;;;-2.16;92.68
23170;BME280;11753;43.144;24.714;2022-12-22T06:16:47;99856.88;;;-2.26;92.34
23170;BME280;11753;43.144;24.714;2022-12-22T06:17:48;99852.06;;;-2.14;92.19
23170;BME280;11753;43.144;24.714;2022-12-22T06:18:48;99855.38;;;-2.11;92.05
23170;BME280;11753;43.144;24.714;2022-12-22T06:19:49;99851.88;;;-2.10;91.83
23170;BME280;11753;43.144;24.714;2022-12-22T06:20:51;99855.94;;;-2.04;91.61
23170;BME280;11753;43.144;24.714;2022-12-22T06:21:53;99853.78;;;-1.95;91.16
23170;BME280;11753;43.144;24.714;2022-12-22T06:22:54;99858.72;;;-1.90;90.51
23170;BME280;11753;43.144;24.714;2022-12-22T06:23:55;99856.00;;;-1.87;90.22
23170;BME280;11753;43.144;24.714;2022-12-22T06:24:55;99858.59;;;-1.87;90.11
23170;BME280;11753;43.144;24.714;2022-12-22T06:25:58;99855.09;;;-1.86;90.16
23170;BME280;11753;43.144;24.714;2022-12-22T06:26:59;99858.47;;;-1.84;89.71
23170;BME280;11753;43.144;24.714;2022-12-22T06:28:00;99854.25;;;-1.86;89.73
23170;BME280;11753;43.144;24.714;2022-12-22T06:29:00;99860.97;;;-1.82;89.53